sensor_id;sensor_type;location;lat;lon;timestamp;P1;durP1;ratioP1;P2;durP2;ratioP2
18507;SDS011;9383;50.928;12.116;2022-11-20T00:00:56;19.70;;;14.77;;
18507;SDS011;9383;50.928;12.116;2022-11-20T00:03:29;24.57;;;15.13;;
18507;SDS011;9383;50.928;12.116;2022-11-20T00:05:59;20.90;;;15.40;;
18507;SDS011;9383;50.928;12.116;2022-11-20T00:08:36;22.70;;;15.43;;
18507;SDS011;9383;50.928;12.116;2022-11-20T00:11:07;20.37;;;15.53;;
18507;SDS011;9383;50.928;12.116;2022-11-20T00:13:38;20.47;;;15.37;;
18507;SDS011;9383;50.928;12.116;2022-11-20T00:16:06;18.80;;;14.80;;
18507;SDS011;9383;50.928;12.116;2022-11-20T00:18:35;18.67;;;14.80;;
18507;SDS011;9383;50.928;12.116;2022-11-20T00:21:05;21.20;;;15.23;;
18507;SDS011;9383;50.928;12.116;2022-11-20T00:23:33;22.70;;;15.77;;
18507;SDS011;9383;50.928;12.116;2022-11-20T00:26:02;19.53;;;14.83;;
18507;SDS011;9383;50.928;12.116;2022-11-20T00:28:30;20.47;;;14.13;;
18507;SDS011;9383;50.928;12.116;2022-11-20T00:31:06;19.93;;;14.60;;
18507;SDS011;9383;50.928;12.116;2022-11-20T00:33:38;19.40;;;14.57;;
18507;SDS011;9383;50.928;12.116;2022-11-20T00:36:06;17.77;;;13.80;;
18507;SDS011;9383;50.928;12.116;2022-11-20T00:38:37;20.13;;;14.10;;
18507;SDS011;9383;50.928;12.116;2022-11-20T00:41:08;19.43;;;14.90;;
18507;SDS011;9383;50.928;12.116;2022-11-20T00:43:36;19.70;;;14.60;;
18507;SDS011;9383;50.928;12.116;2022-11-20T00:48:32;18.47;;;14.93;;
18507;SDS011;9383;50.928;12.116;2022-11-20T00:50:59;19.03;;;15.17;;
18507;SDS011;9383;50.928;12.116;2022-11-20T00:53:26;17.60;;;14.67;;
18507;SDS011;9383;50.928;12.116;2022-11-20T00:55:56;16.93;;;13.57;;
18507;SDS011;9383;50.928;12.116;2022-11-20T00:58:29;21.37;;;15.23;;
18507;SDS011;9383;50.928;12.116;2022-11-20T01:01:01;21.60;;;15.70;;
18507;SDS011;9383;50.928;12.116;2022-11-20T01:03:33;20.73;;;15.63;;
18507;SDS011;9383;50.928;12.116;2022-11-20T01:06:01;21.03;;;15.13;;
18507;SDS011;9383;50.928;12.116;2022-11-20T01:08:31;21.13;;;15.00;;
18507;SDS011;9383;50.928;12.116;2022-11-20T01:11:03;19.53;;;15.33;;
18507;SDS011;9383;50.928;12.116;2022-11-20T01:13:35;21.33;;;15.63;;
18507;SDS011;9383;50.928;12.116;2022-11-20T01:16:24;19.57;;;14.93;;
18507;SDS011;9383;50.928;12.116;2022-11-20T01:19:10;20.90;;;14.50;;
18507;SDS011;9383;50.928;12.116;2022-11-20T01:21:40;21.70;;;15.13;;
18507;SDS011;9383;50.928;12.116;2022-11-20T01:24:08;19.33;;;14.87;;
18507;SDS011;9383;50.928;12.116;2022-11-20T01:26:38;20.40;;;15.20;;
18507;SDS011;9383;50.928;12.116;2022-11-20T01:29:08;21.20;;;15.93;;
18507;SDS011;9383;50.928;12.116;2022-11-20T01:31:39;19.23;;;13.97;;
18507;SDS011;9383;50.928;12.116;2022-11-20T01:34:06;20.13;;;15.43;;
18507;SDS011;9383;50.928;12.116;2022-11-20T01:36:38;19.87;;;14.80;;
18507;SDS011;9383;50.928;12.116;2022-11-20T01:39:07;18.90;;;15.13;;
18507;SDS011;9383;50.928;12.116;2022-11-20T01:41:38;21.73;;;15.87;;
18507;SDS011;9383;50.928;12.116;2022-11-20T01:44:43;20.57;;;15.90;;
18507;SDS011;9383;50.928;12.116;2022-11-20T01:50:11;23.70;;;15.33;;
18507;SDS011;9383;50.928;12.116;2022-11-20T01:53:03;22.40;;;15.67;;
18507;SDS011;9383;50.928;12.116;2022-11-20T01:55:34;24.27;;;15.50;;
18507;SDS011;9383;50.928;12.116;2022-11-20T01:58:05;21.77;;;15.10;;
18507;SDS011;9383;50.928;12.116;2022-11-20T02:00:32;18.53;;;14.17;;
18507;SDS011;9383;50.928;12.116;2022-11-20T02:03:00;20.13;;;15.27;;
18507;SDS011;9383;50.928;12.116;2022-11-20T02:05:32;20.47;;;15.03;;
18507;SDS011;9383;50.928;12.116;2022-11-20T02:08:02;17.00;;;13.90;;
18507;SDS011;9383;50.928;12.116;2022-11-20T02:10:31;19.37;;;14.50;;
18507;SDS011;9383;50.928;12.116;2022-11-20T02:12:58;18.03;;;13.47;;
18507;SDS011;9383;50.928;12.116;2022-11-20T02:15:43;17.63;;;13.63;;
18507;SDS011;9383;50.928;12.116;2022-11-20T02:18:11;20.27;;;15.30;;
18507;SDS011;9383;50.928;12.116;2022-11-20T02:20:42;22.50;;;15.93;;
18507;SDS011;9383;50.928;12.116;2022-11-20T02:23:12;20.07;;;14.93;;
18507;SDS011;9383;50.928;12.116;2022-11-20T02:25:56;18.13;;;13.63;;
18507;SDS011;9383;50.928;12.116;2022-11-20T02:28:23;20.30;;;14.43;;
18507;SDS011;9383;50.928;12.116;2022-11-20T02:30:50;18.57;;;14.17;;
18507;SDS011;9383;50.928;12.116;2022-11-20T02:33:16;17.57;;;14.00;;
18507;SDS011;9383;50.928;12.116;2022-11-20T02:35:44;19.63;;;15.13;;
18507;SDS011;9383;50.928;12.116;2022-11-20T02:38:13;20.37;;;15.10;;
18507;SDS011;9383;50.928;12.116;2022-11-20T02:40:40;19.03;;;15.70;;
18507;SDS011;9383;50.928;12.116;2022-11-20T02:43:08;22.67;;;15.27;;
18507;SDS011;9383;50.928;12.116;2022-11-20T02:45:35;19.13;;;13.33;;
18507;SDS011;9383;50.928;12.116;2022-11-20T02:48:01;18.63;;;14.70;;
18507;SDS011;9383;50.928;12.116;2022-11-20T02:50:28;20.23;;;14.13;;
18507;SDS011;9383;50.928;12.116;2022-11-20T02:52:55;20.13;;;14.93;;
18507;SDS011;9383;50.928;12.116;2022-11-20T02:55:21;19.17;;;14.17;;
18507;SDS011;9383;50.928;12.116;2022-11-20T02:57:48;21.17;;;15.53;;
18507;SDS011;9383;50.928;12.116;2022-11-20T03:00:14;19.30;;;14.57;;
18507;SDS011;9383;50.928;12.116;2022-11-20T03:02:41;18.80;;;14.60;;
18507;SDS011;9383;50.928;12.116;2022-11-20T03:05:07;18.67;;;14.23;;
18507;SDS011;9383;50.928;12.116;2022-11-20T03:07:34;20.27;;;14.20;;
18507;SDS011;9383;50.928;12.116;2022-11-20T03:10:01;19.90;;;14.30;;
18507;SDS011;9383;50.928;12.116;2022-11-20T03:12:28;18.40;;;13.80;;
18507;SDS011;9383;50.928;12.116;2022-11-20T03:14:54;21.50;;;15.13;;
18507;SDS011;9383;50.928;12.116;2022-11-20T03:17:21;18.87;;;14.43;;
18507;SDS011;9383;50.928;12.116;2022-11-20T03:19:47;17.27;;;13.80;;
18507;SDS011;9383;50.928;12.116;2022-11-20T03:22:17;19.63;;;14.50;;
18507;SDS011;9383;50.928;12.116;2022-11-20T03:24:43;18.77;;;13.63;;
18507;SDS011;9383;50.928;12.116;2022-11-20T03:27:10;23.93;;;15.00;;
18507;SDS011;9383;50.928;12.116;2022-11-20T03:29:36;24.30;;;15.33;;
18507;SDS011;9383;50.928;12.116;2022-11-20T03:32:03;19.87;;;14.97;;
18507;SDS011;9383;50.928;12.116;2022-11-20T03:34:30;18.93;;;14.07;;
18507;SDS011;9383;50.928;12.116;2022-11-20T03:36:56;20.20;;;14.53;;
18507;SDS011;9383;50.928;12.116;2022-11-20T03:39:23;20.47;;;14.60;;
18507;SDS011;9383;50.928;12.116;2022-11-20T03:41:49;18.83;;;13.83;;
18507;SDS011;9383;50.928;12.116;2022-11-20T03:44:16;22.07;;;14.23;;
18507;SDS011;9383;50.928;12.116;2022-11-20T03:46:43;18.93;;;14.23;;
18507;SDS011;9383;50.928;12.116;2022-11-20T03:49:09;18.40;;;13.73;;
18507;SDS011;9383;50.928;12.116;2022-11-20T03:51:36;19.20;;;14.70;;
18507;SDS011;9383;50.928;12.116;2022-11-20T03:54:03;20.20;;;13.73;;
18507;SDS011;9383;50.928;12.116;2022-11-20T03:56:35;18.50;;;13.50;;
18507;SDS011;9383;50.928;12.116;2022-11-20T03:59:03;17.33;;;13.00;;
18507;SDS011;9383;50.928;12.116;2022-11-20T04:01:32;20.10;;;13.53;;
18507;SDS011;9383;50.928;12.116;2022-11-20T04:04:00;19.40;;;14.63;;
18507;SDS011;9383;50.928;12.116;2022-11-20T04:06:29;21.27;;;13.97;;
18507;SDS011;9383;50.928;12.116;2022-11-20T04:08:59;17.23;;;12.70;;
18507;SDS011;9383;50.928;12.116;2022-11-20T04:11:26;21.27;;;14.07;;
18507;SDS011;9383;50.928;12.116;2022-11-20T04:14:01;19.67;;;14.27;;
18507;SDS011;9383;50.928;12.116;2022-11-20T04:16:32;18.87;;;13.33;;
18507;SDS011;9383;50.928;12.116;2022-11-20T04:19:01;17.67;;;13.67;;
18507;SDS011;9383;50.928;12.116;2022-11-20T04:21:30;20.27;;;14.20;;
18507;SDS011;9383;50.928;12.116;2022-11-20T04:23:57;18.87;;;13.50;;
18507;SDS011;9383;50.928;12.116;2022-11-20T04:26:24;18.13;;;13.70;;
18507;SDS011;9383;50.928;12.116;2022-11-20T04:28:52;20.20;;;14.30;;
18507;SDS011;9383;50.928;12.116;2022-11-20T04:31:19;18.07;;;13.70;;
18507;SDS011;9383;50.928;12.116;2022-11-20T04:33:48;17.53;;;13.73;;
18507;SDS011;9383;50.928;12.116;2022-11-20T04:36:15;18.70;;;13.80;;
18507;SDS011;9383;50.928;12.116;2022-11-20T04:38:50;21.77;;;14.17;;
18507;SDS011;9383;50.928;12.116;2022-11-20T04:41:19;18.00;;;13.33;;
18507;SDS011;9383;50.928;12.116;2022-11-20T04:43:50;17.60;;;13.50;;
18507;SDS011;9383;50.928;12.116;2022-11-20T04:46:24;18.70;;;13.47;;
18507;SDS011;9383;50.928;12.116;2022-11-20T04:48:52;17.73;;;13.70;;
18507;SDS011;9383;50.928;12.116;2022-11-20T04:51:19;18.30;;;13.23;;
18507;SDS011;9383;50.928;12.116;2022-11-20T04:53:46;20.20;;;14.70;;
18507;SDS011;9383;50.928;12.116;2022-11-20T04:56:13;20.23;;;14.40;;
18507;SDS011;9383;50.928;12.116;2022-11-20T04:58:40;21.13;;;14.43;;
18507;SDS011;9383;50.928;12.116;2022-11-20T05:01:09;17.40;;;13.80;;
18507;SDS011;9383;50.928;12.116;2022-11-20T05:03:41;19.03;;;13.33;;
18507;SDS011;9383;50.928;12.116;2022-11-20T05:06:10;19.03;;;14.17;;
18507;SDS011;9383;50.928;12.116;2022-11-20T05:08:38;17.37;;;13.47;;
18507;SDS011;9383;50.928;12.116;2022-11-20T05:11:06;18.67;;;13.00;;
18507;SDS011;9383;50.928;12.116;2022-11-20T05:13:38;17.33;;;13.13;;
18507;SDS011;9383;50.928;12.116;2022-11-20T05:16:06;19.63;;;13.93;;
18507;SDS011;9383;50.928;12.116;2022-11-20T05:18:37;19.83;;;13.63;;
18507;SDS011;9383;50.928;12.116;2022-11-20T05:21:05;19.50;;;13.67;;
18507;SDS011;9383;50.928;12.116;2022-11-20T05:23:32;18.73;;;13.73;;
18507;SDS011;9383;50.928;12.116;2022-11-20T05:25:59;18.77;;;13.13;;
18507;SDS011;9383;50.928;12.116;2022-11-20T05:28:27;19.37;;;13.27;;
18507;SDS011;9383;50.928;12.116;2022-11-20T05:30:54;19.90;;;14.00;;
18507;SDS011;9383;50.928;12.116;2022-11-20T05:33:21;19.30;;;13.20;;
18507;SDS011;9383;50.928;12.116;2022-11-20T05:35:48;19.83;;;12.93;;
18507;SDS011;9383;50.928;12.116;2022-11-20T05:38:15;18.67;;;13.07;;
18507;SDS011;9383;50.928;12.116;2022-11-20T05:40:41;19.23;;;12.63;;
18507;SDS011;9383;50.928;12.116;2022-11-20T05:43:08;17.93;;;12.83;;
18507;SDS011;9383;50.928;12.116;2022-11-20T05:45:35;15.97;;;11.80;;
18507;SDS011;9383;50.928;12.116;2022-11-20T05:48:02;16.60;;;11.97;;
18507;SDS011;9383;50.928;12.116;2022-11-20T05:50:29;17.70;;;12.33;;
18507;SDS011;9383;50.928;12.116;2022-11-20T05:52:59;15.57;;;11.83;;
18507;SDS011;9383;50.928;12.116;2022-11-20T05:55:26;14.97;;;11.53;;
18507;SDS011;9383;50.928;12.116;2022-11-20T05:57:53;18.73;;;13.50;;
18507;SDS011;9383;50.928;12.116;2022-11-20T06:00:20;18.80;;;13.60;;
18507;SDS011;9383;50.928;12.116;2022-11-20T06:02:47;18.43;;;12.93;;
18507;SDS011;9383;50.928;12.116;2022-11-20T06:05:13;17.30;;;12.87;;
18507;SDS011;9383;50.928;12.116;2022-11-20T06:07:40;19.43;;;13.63;;
18507;SDS011;9383;50.928;12.116;2022-11-20T06:10:07;19.07;;;13.23;;
18507;SDS011;9383;50.928;12.116;2022-11-20T06:12:34;17.87;;;12.83;;
18507;SDS011;9383;50.928;12.116;2022-11-20T06:15:00;17.90;;;12.77;;
18507;SDS011;9383;50.928;12.116;2022-11-20T06:17:27;19.40;;;13.10;;
18507;SDS011;9383;50.928;12.116;2022-11-20T06:19:54;19.70;;;13.60;;
18507;SDS011;9383;50.928;12.116;2022-11-20T06:22:21;16.17;;;12.63;;
18507;SDS011;9383;50.928;12.116;2022-11-20T06:24:47;18.27;;;13.93;;
18507;SDS011;9383;50.928;12.116;2022-11-20T06:27:14;19.17;;;13.20;;
18507;SDS011;9383;50.928;12.116;2022-11-20T06:29:41;18.60;;;12.83;;
18507;SDS011;9383;50.928;12.116;2022-11-20T06:32:08;18.17;;;13.50;;
18507;SDS011;9383;50.928;12.116;2022-11-20T06:34:34;16.63;;;12.53;;
18507;SDS011;9383;50.928;12.116;2022-11-20T06:37:01;17.00;;;12.57;;
18507;SDS011;9383;50.928;12.116;2022-11-20T06:39:27;18.67;;;13.40;;
18507;SDS011;9383;50.928;12.116;2022-11-20T06:41:54;17.13;;;12.87;;
18507;SDS011;9383;50.928;12.116;2022-11-20T06:44:24;17.83;;;13.00;;
18507;SDS011;9383;50.928;12.116;2022-11-20T06:46:51;16.87;;;12.20;;
18507;SDS011;9383;50.928;12.116;2022-11-20T06:49:18;17.77;;;12.30;;
18507;SDS011;9383;50.928;12.116;2022-11-20T06:51:44;18.67;;;13.00;;
18507;SDS011;9383;50.928;12.116;2022-11-20T06:54:11;17.53;;;12.87;;
18507;SDS011;9383;50.928;12.116;2022-11-20T06:56:38;16.83;;;13.27;;
18507;SDS011;9383;50.928;12.116;2022-11-20T06:59:05;16.33;;;12.33;;
18507;SDS011;9383;50.928;12.116;2022-11-20T07:01:32;19.73;;;12.77;;
18507;SDS011;9383;50.928;12.116;2022-11-20T07:03:59;18.63;;;13.90;;
18507;SDS011;9383;50.928;12.116;2022-11-20T07:06:26;17.50;;;13.20;;
18507;SDS011;9383;50.928;12.116;2022-11-20T07:08:52;17.60;;;13.00;;
18507;SDS011;9383;50.928;12.116;2022-11-20T07:11:19;18.57;;;12.67;;
18507;SDS011;9383;50.928;12.116;2022-11-20T07:13:46;18.03;;;12.37;;
18507;SDS011;9383;50.928;12.116;2022-11-20T07:16:19;21.53;;;13.53;;
18507;SDS011;9383;50.928;12.116;2022-11-20T07:18:49;21.37;;;13.77;;
18507;SDS011;9383;50.928;12.116;2022-11-20T07:21:16;19.43;;;13.93;;
18507;SDS011;9383;50.928;12.116;2022-11-20T07:23:43;18.20;;;14.00;;
18507;SDS011;9383;50.928;12.116;2022-11-20T07:26:10;18.73;;;12.97;;
18507;SDS011;9383;50.928;12.116;2022-11-20T07:28:37;18.10;;;12.80;;
18507;SDS011;9383;50.928;12.116;2022-11-20T07:31:04;19.17;;;14.07;;
18507;SDS011;9383;50.928;12.116;2022-11-20T07:33:32;20.60;;;14.37;;
18507;SDS011;9383;50.928;12.116;2022-11-20T07:36:00;20.50;;;15.17;;
18507;SDS011;9383;50.928;12.116;2022-11-20T07:38:28;25.40;;;16.00;;
18507;SDS011;9383;50.928;12.116;2022-11-20T07:40:58;24.50;;;16.40;;
18507;SDS011;9383;50.928;12.116;2022-11-20T07:43:27;24.60;;;18.67;;
18507;SDS011;9383;50.928;12.116;2022-11-20T07:45:55;24.57;;;17.73;;
18507;SDS011;9383;50.928;12.116;2022-11-20T07:48:28;24.63;;;18.13;;
18507;SDS011;9383;50.928;12.116;2022-11-20T07:50:55;21.73;;;16.23;;
18507;SDS011;9383;50.928;12.116;2022-11-20T07:53:22;18.30;;;13.93;;
18507;SDS011;9383;50.928;12.116;2022-11-20T07:55:50;16.87;;;13.27;;
18507;SDS011;9383;50.928;12.116;2022-11-20T07:58:20;15.68;;;13.45;;
18507;SDS011;9383;50.928;12.116;2022-11-20T08:00:48;14.90;;;13.23;;
18507;SDS011;9383;50.928;12.116;2022-11-20T08:03:15;14.52;;;12.02;;
18507;SDS011;9383;50.928;12.116;2022-11-20T08:05:41;15.07;;;13.43;;
18507;SDS011;9383;50.928;12.116;2022-11-20T08:08:08;14.18;;;12.38;;
18507;SDS011;9383;50.928;12.116;2022-11-20T08:10:35;13.82;;;12.40;;
18507;SDS011;9383;50.928;12.116;2022-11-20T08:13:02;14.38;;;12.88;;
18507;SDS011;9383;50.928;12.116;2022-11-20T08:15:48;13.30;;;11.23;;
18507;SDS011;9383;50.928;12.116;2022-11-20T08:18:18;13.02;;;11.57;;
18507;SDS011;9383;50.928;12.116;2022-11-20T08:20:45;13.48;;;11.38;;
18507;SDS011;9383;50.928;12.116;2022-11-20T08:23:12;14.50;;;11.40;;
18507;SDS011;9383;50.928;12.116;2022-11-20T08:25:39;14.95;;;12.20;;
18507;SDS011;9383;50.928;12.116;2022-11-20T08:28:07;13.40;;;12.00;;
18507;SDS011;9383;50.928;12.116;2022-11-20T08:30:34;13.38;;;11.75;;
18507;SDS011;9383;50.928;12.116;2022-11-20T08:33:06;13.15;;;11.75;;
18507;SDS011;9383;50.928;12.116;2022-11-20T08:35:35;12.55;;;11.23;;
18507;SDS011;9383;50.928;12.116;2022-11-20T08:38:03;14.63;;;11.65;;
18507;SDS011;9383;50.928;12.116;2022-11-20T08:40:31;13.05;;;11.75;;
18507;SDS011;9383;50.928;12.116;2022-11-20T08:42:58;13.02;;;11.73;;
18507;SDS011;9383;50.928;12.116;2022-11-20T08:45:25;13.85;;;12.45;;
18507;SDS011;9383;50.928;12.116;2022-11-20T08:47:51;14.45;;;12.43;;
18507;SDS011;9383;50.928;12.116;2022-11-20T08:50:17;14.77;;;13.18;;
18507;SDS011;9383;50.928;12.116;2022-11-20T08:52:44;15.25;;;13.65;;
18507;SDS011;9383;50.928;12.116;2022-11-20T08:55:10;14.40;;;12.43;;
18507;SDS011;9383;50.928;12.116;2022-11-20T08:57:37;17.08;;;15.23;;
18507;SDS011;9383;50.928;12.116;2022-11-20T09:00:05;14.77;;;13.18;;
18507;SDS011;9383;50.928;12.116;2022-11-20T09:02:33;16.00;;;13.93;;
18507;SDS011;9383;50.928;12.116;2022-11-20T09:05:02;16.23;;;14.45;;
18507;SDS011;9383;50.928;12.116;2022-11-20T09:07:29;15.38;;;13.77;;
18507;SDS011;9383;50.928;12.116;2022-11-20T09:09:56;15.57;;;13.95;;
18507;SDS011;9383;50.928;12.116;2022-11-20T09:12:22;14.30;;;12.80;;
18507;SDS011;9383;50.928;12.116;2022-11-20T09:14:49;14.00;;;12.50;;
18507;SDS011;9383;50.928;12.116;2022-11-20T09:17:16;13.85;;;12.10;;
18507;SDS011;9383;50.928;12.116;2022-11-20T09:19:42;15.07;;;12.07;;
18507;SDS011;9383;50.928;12.116;2022-11-20T09:22:09;13.75;;;12.30;;
18507;SDS011;9383;50.928;12.116;2022-11-20T09:24:35;13.52;;;12.13;;
18507;SDS011;9383;50.928;12.116;2022-11-20T09:27:03;16.20;;;13.48;;
18507;SDS011;9383;50.928;12.116;2022-11-20T09:29:30;14.00;;;11.82;;
18507;SDS011;9383;50.928;12.116;2022-11-20T09:31:56;15.63;;;12.82;;
18507;SDS011;9383;50.928;12.116;2022-11-20T09:34:23;13.63;;;11.82;;
18507;SDS011;9383;50.928;12.116;2022-11-20T09:36:50;14.85;;;13.15;;
18507;SDS011;9383;50.928;12.116;2022-11-20T09:39:16;15.68;;;13.27;;
18507;SDS011;9383;50.928;12.116;2022-11-20T09:55:15;12.95;;;11.02;;
18507;SDS011;9383;50.928;12.116;2022-11-20T09:57:43;11.73;;;10.45;;
18507;SDS011;9383;50.928;12.116;2022-11-20T10:00:17;13.52;;;11.88;;
18507;SDS011;9383;50.928;12.116;2022-11-20T10:02:52;11.82;;;10.38;;
18507;SDS011;9383;50.928;12.116;2022-11-20T10:30:03;11.85;;;10.65;;
18507;SDS011;9383;50.928;12.116;2022-11-20T10:32:37;11.27;;;10.07;;
18507;SDS011;9383;50.928;12.116;2022-11-20T10:37:49;13.27;;;11.73;;
18507;SDS011;9383;50.928;12.116;2022-11-20T10:40:32;12.27;;;10.85;;
18507;SDS011;9383;50.928;12.116;2022-11-20T10:43:07;13.32;;;10.98;;
18507;SDS011;9383;50.928;12.116;2022-11-20T10:45:56;14.70;;;12.60;;
18507;SDS011;9383;50.928;12.116;2022-11-20T10:48:32;11.98;;;10.60;;
18507;SDS011;9383;50.928;12.116;2022-11-20T10:56:38;14.63;;;12.75;;
18507;SDS011;9383;50.928;12.116;2022-11-20T10:59:41;14.40;;;12.48;;
18507;SDS011;9383;50.928;12.116;2022-11-20T11:02:17;14.23;;;11.95;;
18507;SDS011;9383;50.928;12.116;2022-11-20T11:04:47;14.32;;;12.55;;
18507;SDS011;9383;50.928;12.116;2022-11-20T11:07:30;14.20;;;12.73;;
18507;SDS011;9383;50.928;12.116;2022-11-20T11:10:05;14.75;;;12.48;;
18507;SDS011;9383;50.928;12.116;2022-11-20T11:12:43;13.13;;;11.75;;
18507;SDS011;9383;50.928;12.116;2022-11-20T11:15:14;14.15;;;12.32;;
18507;SDS011;9383;50.928;12.116;2022-11-20T11:17:54;30.27;;;21.70;;
18507;SDS011;9383;50.928;12.116;2022-11-20T11:20:25;24.63;;;19.80;;
18507;SDS011;9383;50.928;12.116;2022-11-20T11:22:53;17.90;;;13.82;;
18507;SDS011;9383;50.928;12.116;2022-11-20T11:25:25;17.38;;;14.77;;
18507;SDS011;9383;50.928;12.116;2022-11-20T11:28:21;15.05;;;13.30;;
18507;SDS011;9383;50.928;12.116;2022-11-20T11:30:47;12.95;;;11.30;;
18507;SDS011;9383;50.928;12.116;2022-11-20T11:33:22;12.00;;;10.68;;
18507;SDS011;9383;50.928;12.116;2022-11-20T11:36:16;13.55;;;11.15;;
18507;SDS011;9383;50.928;12.116;2022-11-20T11:38:45;15.07;;;12.65;;
18507;SDS011;9383;50.928;12.116;2022-11-20T11:41:20;13.15;;;10.95;;
18507;SDS011;9383;50.928;12.116;2022-11-20T11:43:54;11.77;;;10.52;;
18507;SDS011;9383;50.928;12.116;2022-11-20T11:47:06;14.30;;;12.38;;
18507;SDS011;9383;50.928;12.116;2022-11-20T11:50:15;13.50;;;11.57;;
18507;SDS011;9383;50.928;12.116;2022-11-20T11:56:08;12.52;;;11.23;;
18507;SDS011;9383;50.928;12.116;2022-11-20T11:58:51;12.18;;;10.88;;
18507;SDS011;9383;50.928;12.116;2022-11-20T12:01:47;13.07;;;10.70;;
18507;SDS011;9383;50.928;12.116;2022-11-20T12:04:37;14.15;;;12.00;;
18507;SDS011;9383;50.928;12.116;2022-11-20T12:10:00;13.75;;;10.00;;
18507;SDS011;9383;50.928;12.116;2022-11-20T12:12:34;12.07;;;10.57;;
18507;SDS011;9383;50.928;12.116;2022-11-20T12:15:09;12.43;;;10.48;;
18507;SDS011;9383;50.928;12.116;2022-11-20T12:17:38;12.82;;;10.90;;
18507;SDS011;9383;50.928;12.116;2022-11-20T12:20:13;12.60;;;10.77;;
18507;SDS011;9383;50.928;12.116;2022-11-20T12:25:39;12.27;;;10.82;;
18507;SDS011;9383;50.928;12.116;2022-11-20T12:31:26;13.85;;;10.95;;
18507;SDS011;9383;50.928;12.116;2022-11-20T12:34:16;12.55;;;10.23;;
18507;SDS011;9383;50.928;12.116;2022-11-20T12:37:26;12.15;;;10.88;;
18507;SDS011;9383;50.928;12.116;2022-11-20T12:39:55;11.38;;;9.60;;
18507;SDS011;9383;50.928;12.116;2022-11-20T12:42:33;10.55;;;9.32;;
18507;SDS011;9383;50.928;12.116;2022-11-20T13:02:33;14.23;;;11.90;;
18507;SDS011;9383;50.928;12.116;2022-11-20T13:05:17;19.48;;;13.70;;
18507;SDS011;9383;50.928;12.116;2022-11-20T13:07:50;30.25;;;17.77;;
18507;SDS011;9383;50.928;12.116;2022-11-20T13:15:54;15.38;;;11.07;;
18507;SDS011;9383;50.928;12.116;2022-11-20T13:18:41;17.02;;;11.85;;
18507;SDS011;9383;50.928;12.116;2022-11-20T13:21:14;10.88;;;8.07;;
18507;SDS011;9383;50.928;12.116;2022-11-20T13:23:43;9.60;;;7.88;;
18507;SDS011;9383;50.928;12.116;2022-11-20T13:28:48;19.73;;;12.82;;
18507;SDS011;9383;50.928;12.116;2022-11-20T13:31:36;13.57;;;11.05;;
18507;SDS011;9383;50.928;12.116;2022-11-20T13:34:10;15.73;;;11.27;;
18507;SDS011;9383;50.928;12.116;2022-11-20T13:36:52;9.15;;;8.10;;
18507;SDS011;9383;50.928;12.116;2022-11-20T13:39:25;16.38;;;12.48;;
18507;SDS011;9383;50.928;12.116;2022-11-20T13:41:55;18.88;;;15.63;;
18507;SDS011;9383;50.928;12.116;2022-11-20T13:44:27;17.13;;;12.82;;
18507;SDS011;9383;50.928;12.116;2022-11-20T13:47:03;11.30;;;9.75;;
18507;SDS011;9383;50.928;12.116;2022-11-20T13:49:46;12.25;;;10.60;;
18507;SDS011;9383;50.928;12.116;2022-11-20T13:55:28;10.40;;;9.30;;
18507;SDS011;9383;50.928;12.116;2022-11-20T14:00:44;11.68;;;10.48;;
18507;SDS011;9383;50.928;12.116;2022-11-20T14:03:20;9.70;;;8.60;;
18507;SDS011;9383;50.928;12.116;2022-11-20T14:05:54;14.90;;;12.63;;
18507;SDS011;9383;50.928;12.116;2022-11-20T14:11:31;13.75;;;11.68;;
18507;SDS011;9383;50.928;12.116;2022-11-20T14:13:54;11.35;;;10.15;;
18507;SDS011;9383;50.928;12.116;2022-11-20T14:16:39;13.75;;;11.27;;
18507;SDS011;9383;50.928;12.116;2022-11-20T14:21:53;11.95;;;10.73;;
18507;SDS011;9383;50.928;12.116;2022-11-20T14:24:33;43.83;;;31.27;;
18507;SDS011;9383;50.928;12.116;2022-11-20T14:27:00;55.33;;;32.05;;
18507;SDS011;9383;50.928;12.116;2022-11-20T14:29:34;30.10;;;20.50;;
18507;SDS011;9383;50.928;12.116;2022-11-20T14:32:03;88.00;;;59.75;;
18507;SDS011;9383;50.928;12.116;2022-11-20T14:34:31;75.95;;;54.92;;
18507;SDS011;9383;50.928;12.116;2022-11-20T14:37:03;24.85;;;19.20;;
18507;SDS011;9383;50.928;12.116;2022-11-20T14:39:33;21.67;;;17.63;;
18507;SDS011;9383;50.928;12.116;2022-11-20T14:42:15;11.63;;;10.13;;
18507;SDS011;9383;50.928;12.116;2022-11-20T14:44:43;13.63;;;11.27;;
18507;SDS011;9383;50.928;12.116;2022-11-20T14:47:13;13.43;;;11.52;;
18507;SDS011;9383;50.928;12.116;2022-11-20T14:49:45;18.05;;;14.85;;
18507;SDS011;9383;50.928;12.116;2022-11-20T14:52:18;13.43;;;11.88;;
18507;SDS011;9383;50.928;12.116;2022-11-20T14:54:50;15.70;;;12.90;;
18507;SDS011;9383;50.928;12.116;2022-11-20T15:00:18;10.93;;;9.50;;
18507;SDS011;9383;50.928;12.116;2022-11-20T15:02:50;19.90;;;14.60;;
18507;SDS011;9383;50.928;12.116;2022-11-20T15:05:18;10.75;;;9.65;;
18507;SDS011;9383;50.928;12.116;2022-11-20T15:07:48;10.15;;;8.95;;
18507;SDS011;9383;50.928;12.116;2022-11-20T15:10:24;9.60;;;8.55;;
18507;SDS011;9383;50.928;12.116;2022-11-20T15:17:56;11.85;;;9.93;;
18507;SDS011;9383;50.928;12.116;2022-11-20T15:20:25;12.40;;;10.95;;
18507;SDS011;9383;50.928;12.116;2022-11-20T15:22:55;11.50;;;10.25;;
18507;SDS011;9383;50.928;12.116;2022-11-20T15:25:21;14.07;;;10.73;;
18507;SDS011;9383;50.928;12.116;2022-11-20T15:27:54;13.52;;;11.18;;
18507;SDS011;9383;50.928;12.116;2022-11-20T15:30:22;12.55;;;10.45;;
18507;SDS011;9383;50.928;12.116;2022-11-20T15:32:49;11.38;;;10.18;;
18507;SDS011;9383;50.928;12.116;2022-11-20T15:35:16;15.15;;;12.70;;
18507;SDS011;9383;50.928;12.116;2022-11-20T15:37:43;19.27;;;16.40;;
18507;SDS011;9383;50.928;12.116;2022-11-20T15:40:09;12.27;;;11.00;;
18507;SDS011;9383;50.928;12.116;2022-11-20T15:42:36;11.52;;;10.07;;
18507;SDS011;9383;50.928;12.116;2022-11-20T15:45:02;13.35;;;9.90;;
18507;SDS011;9383;50.928;12.116;2022-11-20T15:47:30;11.40;;;10.00;;
18507;SDS011;9383;50.928;12.116;2022-11-20T15:49:59;11.32;;;9.82;;
18507;SDS011;9383;50.928;12.116;2022-11-20T15:52:26;11.75;;;10.55;;
18507;SDS011;9383;50.928;12.116;2022-11-20T15:54:52;11.80;;;10.07;;
18507;SDS011;9383;50.928;12.116;2022-11-20T15:57:19;11.65;;;9.93;;
18507;SDS011;9383;50.928;12.116;2022-11-20T15:59:45;12.27;;;10.68;;
18507;SDS011;9383;50.928;12.116;2022-11-20T16:02:13;13.15;;;11.07;;
18507;SDS011;9383;50.928;12.116;2022-11-20T16:04:41;19.33;;;15.27;;
18507;SDS011;9383;50.928;12.116;2022-11-20T16:07:08;17.40;;;14.73;;
18507;SDS011;9383;50.928;12.116;2022-11-20T16:09:35;15.82;;;13.45;;
18507;SDS011;9383;50.928;12.116;2022-11-20T16:12:02;15.68;;;13.05;;
18507;SDS011;9383;50.928;12.116;2022-11-20T16:14:28;14.00;;;11.50;;
18507;SDS011;9383;50.928;12.116;2022-11-20T16:17:13;11.65;;;10.13;;
18507;SDS011;9383;50.928;12.116;2022-11-20T16:19:40;14.30;;;11.68;;
18507;SDS011;9383;50.928;12.116;2022-11-20T16:22:06;12.85;;;11.00;;
18507;SDS011;9383;50.928;12.116;2022-11-20T16:24:36;13.93;;;11.73;;
18507;SDS011;9383;50.928;12.116;2022-11-20T16:27:03;15.68;;;11.60;;
18507;SDS011;9383;50.928;12.116;2022-11-20T16:29:29;13.60;;;10.55;;
18507;SDS011;9383;50.928;12.116;2022-11-20T16:31:56;14.57;;;10.93;;